Nicholson, Kentucky
Current Conditions -  °F | °C
As of 5:52 PM on Monday 22 Dec 2014 (Local Time) from KCVG Reporting Station
Broken Clouds Broken Clouds  
Wind Chill: 45°   Ceiling: 11000
Heat Index: 49°   Visibility: 10mi
Dew Point: 37°   Wind: 8mph
Humidity: 64%   Direction: 110°ESE
Pressure: 29.78"   Gusts: NA
Location:  38.9286°N, 84.5381°W
Report Text: KCVG 222252Z 11007KT 10SM SCT080 BKN110 BKN150 09/03 A2978 RMK AO2 SLP085 T00940028
Loading
Personal Weather Stations






























Interactive Weather Map New forecast layout! Learn more

10-Day Weather Forecast

Advertisements
Track Severe Weather on mobile